EDT,Max TemperatureF,Mean TemperatureF,Min TemperatureF,Max Dew PointF,MeanDew PointF,Min DewpointF,Max Humidity, Mean Humidity, Min Humidity, Max Sea Level PressureIn, Mean Sea Level PressureIn, Min Sea Level PressureIn, Max VisibilityMiles, Mean VisibilityMiles, Min VisibilityMiles, Max Wind SpeedMPH, Mean Wind SpeedMPH, Max Gust SpeedMPH,PrecipitationIn, CloudCover, Events, WindDirDegrees
2012-10-1,65,53,41,55,47,41,100,82,63,30.01,29.94,29.87,10,4,0,13,1,18,0.05,7,Fog-Rain,172
2012-10-2,79,70,60,65,61,55,97,79,60,29.94,29.88,29.82,10,9,3,20,6,25,0.41,5,Rain,165
2012-10-3,76,69,61,61,60,55,93,75,57,30.19,30.09,29.94,10,10,5,12,1,15,0.00,3,,307
2012-10-4,72,60,48,61,55,47,100,72,44,30.27,30.23,30.18,10,8,5,15,3,20,0.00,5,,260
2012-10-5,74,59,44,56,47,43,100,72,44,30.26,30.19,30.01,10,5,0,13,2,18,0.00,1,Fog,278
2012-10-6,62,50,37,54,45,36,96,80,63,30.17,30.02,29.91,10,7,2,14,3,20,0.03,4,Rain,284
2012-10-7,50,42,34,42,39,35,100,88,76,30.24,30.14,30.05,10,8,2,13,2,17,0.04,7,Rain,257
2012-10-8,42,38,34,39,36,32,100,91,82,30.32,30.24,30.17,10,5,0,5,0,30,0.40,7,Fog-Rain,258
2012-10-9,59,48,37,42,39,36,93,75,57,30.24,30.16,30.05,10,8,0,9,1,13,0.00,5,Fog,297
2012-10-10,59,49,38,45,40,31,100,79,57,30.21,30.06,29.98,10,6,0,18,6,26,T,7,Fog-Rain,258
2012-10-11,62,45,27,34,30,24,96,61,25,30.37,30.27,30.20,10,10,7,7,1,9,0.00,1,,340
2012-10-12,56,43,30,39,33,28,100,73,46,30.45,30.34,30.22,10,9,6,14,3,18,0.03,1,,341
2012-10-13,70,49,28,40,33,27,100,66,31,30.49,30.36,30.21,10,6,0,13,5,18,0.00,2,Fog,172
2012-10-14,78,62,46,54,47,41,86,59,31,30.22,30.08,29.88,10,10,10,17,5,25,T,3,,177
2012-10-15,66,57,47,54,47,38,82,65,47,29.95,29.85,29.76,10,10,7,21,11,32,0.06,8,Rain,253
2012-10-16,59,47,35,42,38,34,92,68,43,30.03,29.97,29.92,10,10,9,14,4,18,0.00,5,,281
2012-10-17,74,53,31,41,31,19,100,57,14,30.05,29.95,29.83,10,5,0,16,3,23,0.00,1,Fog,182
2012-10-18,68,57,46,49,45,40,93,69,45,29.86,29.81,29.70,10,8,2,23,9,44,0.41,4,Rain,176
2012-10-19,66,56,45,47,42,29,100,63,26,29.84,29.78,29.64,10,7,0,15,4,20,0.21,6,Fog-Rain,198
2012-10-20,53,48,42,41,37,33,89,70,50,30.03,29.87,29.77,10,10,10,16,6,24,0.01,8,Rain,255
2012-10-21,57,45,33,40,37,32,96,70,43,30.25,30.15,30.04,10,10,9,12,4,17,0.00,5,,304
2012-10-22,73,52,30,47,36,28,100,69,38,30.32,30.23,30.17,10,6,0,12,1,15,0.00,1,Fog,300
2012-10-23,76,60,44,52,47,43,93,66,38,30.22,30.17,30.11,10,9,5,16,2,22,0.00,2,,302
2012-10-24,76,61,45,57,47,44,93,65,36,30.25,30.18,29.96,19,10,7,13,2,17,0.00,2,,273
2012-10-25,80,60,39,48,43,38,96,61,25,30.24,30.16,30.09,10,9,2,14,4,18,0.00,0,,167
2012-10-26,78,61,43,52,48,42,92,63,33,30.18,30.09,30.01,10,10,7,10,2,14,0.00,2,,128
2012-10-27,66,56,46,52,48,44,100,82,63,29.99,29.96,29.92,10,7,2,14,4,18,T,7,Rain,319
2012-10-28,47,44,41,45,43,39,93,90,86,29.96,29.87,29.79,10,6,2,9,4,12,0.21,8,Rain,316
2012-10-29,41,37,33,37,33,30,96,91,85,29.82,29.59,29.22,10,4,0,17,4,40,1.33,8,Fog-Rain-Snow,302
2012-10-30,34,33,32,30,30,28,89,87,85,29.47,29.25,29.13,1,1,1,14,10,29,0.28,8,Snow,231
2012-10-31,36,34,33,32,31,30,89,86,82,29.73,29.61,29.48,10,9,2,6,6,,0.02,8,Rain-Snow,182